createdAt,value
2019-01-13T00:04:42.128Z,20.92
2019-01-13T00:09:46.448Z,20.92
2019-01-13T00:14:50.776Z,20.89
2019-01-13T00:19:55.096Z,20.91
2019-01-13T00:24:59.274Z,20.86
2019-01-13T00:30:03.993Z,20.86
2019-01-13T00:35:08.545Z,20.90
2019-01-13T00:40:14.338Z,20.85
2019-01-13T00:45:18.604Z,20.88
2019-01-13T00:50:22.843Z,20.88
2019-01-13T00:55:27.068Z,20.84
2019-01-13T01:00:31.297Z,20.77
2019-01-13T01:05:35.560Z,20.75
2019-01-13T01:10:39.794Z,20.75
2019-01-13T01:15:44.111Z,20.83
2019-01-13T01:20:48.428Z,20.73
2019-01-13T01:25:52.753Z,20.81
2019-01-13T01:30:57.033Z,20.80
2019-01-13T01:36:01.309Z,20.80
2019-01-13T01:41:05.574Z,20.80
2019-01-13T01:46:09.776Z,20.79
2019-01-13T01:51:13.859Z,20.79
2019-01-13T01:56:17.987Z,20.79
2019-01-13T02:01:22.366Z,20.79
2019-01-13T02:06:26.633Z,20.81
2019-01-13T02:11:31.121Z,20.81
2019-01-13T02:16:35.295Z,20.76
2019-01-13T02:21:39.629Z,20.76
2019-01-13T02:26:43.856Z,20.74
2019-01-13T02:31:48.138Z,20.75
2019-01-13T02:36:52.382Z,20.76
2019-01-13T02:41:56.551Z,20.72
2019-01-13T02:47:00.800Z,20.74
2019-01-13T02:52:05.085Z,20.65
2019-01-13T02:57:09.458Z,20.72
2019-01-13T03:02:13.699Z,20.70
2019-01-13T03:07:18.086Z,20.70
2019-01-13T03:12:22.451Z,20.71
2019-01-13T03:17:26.768Z,20.70
2019-01-13T03:22:31.063Z,20.68
2019-01-13T03:27:35.447Z,20.68
2019-01-13T03:32:39.814Z,20.70
2019-01-13T03:37:44.107Z,20.70
2019-01-13T03:42:48.747Z,20.63
2019-01-13T03:47:53.003Z,20.70
2019-01-13T03:53:00.337Z,20.70
2019-01-13T03:58:04.744Z,20.70
2019-01-13T04:03:09.019Z,20.68
2019-01-13T04:08:13.310Z,20.69
2019-01-13T04:13:17.521Z,20.68
2019-01-13T04:18:21.872Z,20.67
2019-01-13T04:23:26.204Z,20.66
2019-01-13T04:28:30.518Z,20.58
2019-01-13T04:33:34.835Z,20.66
2019-01-13T04:38:39.007Z,20.66
2019-01-13T04:43:43.307Z,20.66
2019-01-13T04:48:47.465Z,20.65
2019-01-13T04:53:51.871Z,20.65
2019-01-13T04:58:56.106Z,20.65
2019-01-13T05:04:00.285Z,20.65
2019-01-13T05:09:06.855Z,20.65
2019-01-13T05:14:11.068Z,20.54
2019-01-13T05:19:15.343Z,20.54
2019-01-13T05:24:19.606Z,20.60
2019-01-13T05:29:23.931Z,20.60
2019-01-13T05:34:28.086Z,20.62
2019-01-13T05:39:32.442Z,20.62
2019-01-13T05:44:36.744Z,20.62
2019-01-13T05:49:41.017Z,20.61
2019-01-13T05:54:45.431Z,20.63
2019-01-13T05:59:49.716Z,20.63
2019-01-13T06:04:53.955Z,20.50
2019-01-13T06:09:58.235Z,20.58
2019-01-13T06:15:02.682Z,20.57
2019-01-13T06:20:10.432Z,20.56
2019-01-13T06:25:14.917Z,20.56
2019-01-13T06:30:23.750Z,20.56
2019-01-13T06:35:28.057Z,20.57
2019-01-13T06:40:32.377Z,20.56
2019-01-13T06:45:36.704Z,20.55
2019-01-13T06:50:41.103Z,20.49
2019-01-13T06:55:45.574Z,20.49
2019-01-13T07:00:49.736Z,20.31
2019-01-13T07:05:53.856Z,20.31
2019-01-13T07:10:57.961Z,20.35
2019-01-13T07:16:02.166Z,20.31
2019-01-13T07:21:06.328Z,20.27
2019-01-13T07:26:10.676Z,20.25
2019-01-13T07:31:14.815Z,20.19
2019-01-13T07:36:18.884Z,20.14
2019-01-13T07:41:23.132Z,20.14
2019-01-13T07:46:27.363Z,20.10
2019-01-13T07:51:31.533Z,20.05
2019-01-13T07:56:35.646Z,20.02
2019-01-13T08:01:39.812Z,19.99
2019-01-13T08:06:44.087Z,20.03
2019-01-13T08:11:48.420Z,20.59
2019-01-13T08:16:52.471Z,20.59
2019-01-13T08:21:56.511Z,21.42
2019-01-13T08:27:00.741Z,21.49
2019-01-13T08:32:04.921Z,21.42
2019-01-13T08:37:09.008Z,21.35
2019-01-13T08:42:13.017Z,21.35
2019-01-13T08:47:17.116Z,18.33
2019-01-13T08:52:21.547Z,18.33
2019-01-13T08:57:25.770Z,20.40
2019-01-13T09:02:32.309Z,20.88
2019-01-13T09:07:35.810Z,20.98
2019-01-13T09:12:40.323Z,21.24
2019-01-13T09:17:44.501Z,21.08
2019-01-13T09:22:48.786Z,21.08
2019-01-13T09:27:52.820Z,21.08
2019-01-13T09:32:56.926Z,20.93
2019-01-13T09:38:01.142Z,20.82
2019-01-13T09:43:06.053Z,20.67
2019-01-13T09:48:10.172Z,20.58
2019-01-13T09:53:14.525Z,20.56
2019-01-13T09:58:18.651Z,20.56
2019-01-13T10:03:22.851Z,20.68
2019-01-13T10:08:27.018Z,21.02
2019-01-13T10:13:31.055Z,21.04
2019-01-13T10:18:35.098Z,20.85
2019-01-13T10:23:39.193Z,20.75
2019-01-13T10:28:43.576Z,20.75
2019-01-13T10:33:47.753Z,20.63
2019-01-13T10:38:51.925Z,20.57
2019-01-13T10:43:56.174Z,20.55
2019-01-13T10:49:00.295Z,20.56
2019-01-13T10:54:09.124Z,20.56
2019-01-13T10:59:10.633Z,20.95
2019-01-13T11:04:14.683Z,21.02
2019-01-13T11:09:18.833Z,20.99
2019-01-13T11:14:22.848Z,20.92
2019-01-13T11:19:26.985Z,20.82
2019-01-13T11:24:31.223Z,20.75
2019-01-13T11:29:35.239Z,20.75
2019-01-13T11:34:39.321Z,20.73
2019-01-13T11:39:43.438Z,20.71
2019-01-13T11:44:47.662Z,20.66
2019-01-13T11:49:51.837Z,20.67
2019-01-13T11:54:55.891Z,20.79
2019-01-13T12:00:00.182Z,21.02
2019-01-13T12:05:05.036Z,21.09
2019-01-13T12:10:11.440Z,21.05
2019-01-13T12:15:16.718Z,21.05
2019-01-13T12:20:22.288Z,20.91
2019-01-13T12:25:26.433Z,20.91
2019-01-13T12:30:31.858Z,20.80
2019-01-13T12:35:35.968Z,20.74
2019-01-13T12:40:40.010Z,20.71
2019-01-13T12:45:44.135Z,20.65
2019-01-13T12:50:48.140Z,20.60
2019-01-13T12:55:52.437Z,20.69
2019-01-13T13:00:56.579Z,20.77
2019-01-13T13:06:00.631Z,20.97
2019-01-13T13:11:04.829Z,20.89
2019-01-13T13:16:09.025Z,21.08
2019-01-13T13:21:13.184Z,21.13
2019-01-13T13:26:17.299Z,21.06
2019-01-13T13:31:21.616Z,20.86
2019-01-13T13:36:25.768Z,20.86
2019-01-13T13:41:29.825Z,20.67
2019-01-13T13:46:34.075Z,20.70
2019-01-13T13:51:38.183Z,20.70
2019-01-13T13:56:42.295Z,20.68
2019-01-13T14:01:46.489Z,21.12
2019-01-13T14:06:51.705Z,21.35
2019-01-13T14:11:56.319Z,21.57
2019-01-13T14:17:00.407Z,21.66
2019-01-13T14:22:04.611Z,22.11
2019-01-13T14:27:08.801Z,21.97
2019-01-13T14:32:12.987Z,21.97
2019-01-13T14:37:17.060Z,22.04
2019-01-13T14:42:21.118Z,22.04
2019-01-13T14:47:25.363Z,21.99
2019-01-13T14:52:29.491Z,21.91
2019-01-13T14:57:33.804Z,22.07
2019-01-13T15:02:37.860Z,22.09
2019-01-13T15:07:42.118Z,22.09
2019-01-13T15:12:46.295Z,22.07
2019-01-13T15:17:50.518Z,22.03
2019-01-13T15:22:54.754Z,22.03
2019-01-13T15:27:59.342Z,22.06
2019-01-13T15:33:03.604Z,22.08
2019-01-13T15:38:09.067Z,22.08
2019-01-13T15:43:13.214Z,22.10
2019-01-13T15:48:17.280Z,22.08
2019-01-13T15:53:21.373Z,22.08
2019-01-13T15:58:25.577Z,22.20
2019-01-13T16:03:29.748Z,22.21
2019-01-13T16:08:33.851Z,22.21
2019-01-13T16:13:37.908Z,22.29
2019-01-13T16:18:41.973Z,22.22
2019-01-13T16:23:46.111Z,22.21
2019-01-13T16:28:50.256Z,22.21
2019-01-13T16:33:54.426Z,22.19
2019-01-13T16:38:58.599Z,22.21
2019-01-13T16:44:02.729Z,22.28
2019-01-13T16:49:07.033Z,22.30
2019-01-13T16:54:11.089Z,22.25
2019-01-13T16:59:15.257Z,22.20
2019-01-13T17:04:19.389Z,22.20
2019-01-13T17:09:23.446Z,22.48
2019-01-13T17:14:27.492Z,22.44
2019-01-13T17:19:33.411Z,22.33
2019-01-13T17:24:37.472Z,22.48
2019-01-13T17:29:41.483Z,22.45
2019-01-13T17:34:45.491Z,22.45
2019-01-13T17:39:49.578Z,22.41
2019-01-13T17:44:53.638Z,22.45
2019-01-13T17:49:57.678Z,22.43
2019-01-13T17:55:01.787Z,22.44
2019-01-13T18:00:11.601Z,22.44
2019-01-13T18:05:15.703Z,22.43
2019-01-13T18:10:19.961Z,22.44
2019-01-13T18:15:24.122Z,22.51
2019-01-13T18:20:28.212Z,22.46
2019-01-13T18:25:32.380Z,22.32
2019-01-13T18:30:36.405Z,22.47
2019-01-13T18:35:40.617Z,22.43
2019-01-13T18:40:44.777Z,22.36
2019-01-13T18:45:48.966Z,22.37
2019-01-13T18:50:53.091Z,22.37
2019-01-13T18:55:57.102Z,22.38
2019-01-13T19:01:02.913Z,22.42
2019-01-13T19:06:07.012Z,22.42
2019-01-13T19:11:37.991Z,22.41
2019-01-13T19:16:59.040Z,22.39
2019-01-13T19:22:04.597Z,22.39
2019-01-13T19:27:10.662Z,22.44
2019-01-13T19:32:14.687Z,22.42
2019-01-13T19:37:18.904Z,22.42
2019-01-13T19:42:23.011Z,22.42
2019-01-13T19:47:27.111Z,22.31
2019-01-13T19:52:31.223Z,22.31
2019-01-13T19:57:35.326Z,22.14
2019-01-13T20:02:39.424Z,22.23
2019-01-13T20:07:43.529Z,22.32
2019-01-13T20:12:47.689Z,22.34
2019-01-13T20:17:51.777Z,22.21
2019-01-13T20:22:56.005Z,22.33
2019-01-13T20:28:00.112Z,22.33
2019-01-13T20:33:05.582Z,22.02
2019-01-13T20:38:09.768Z,21.98
2019-01-13T20:43:13.813Z,21.90
2019-01-13T20:48:17.948Z,21.93
2019-01-13T20:53:22.268Z,21.93
2019-01-13T20:58:26.288Z,21.72
2019-01-13T21:03:30.499Z,21.75
2019-01-13T21:08:34.637Z,21.67
2019-01-13T21:13:38.737Z,21.67
2019-01-13T21:18:42.865Z,21.57
2019-01-13T21:23:46.878Z,21.45
2019-01-13T21:28:50.908Z,21.50
2019-01-13T21:33:54.931Z,21.48
2019-01-13T21:38:59.106Z,21.37
2019-01-13T21:44:03.286Z,21.37
2019-01-13T21:49:07.377Z,21.40
2019-01-13T21:54:11.557Z,21.36
2019-01-13T21:59:15.664Z,21.42
2019-01-13T22:04:19.671Z,21.35
2019-01-13T22:09:23.802Z,21.34
2019-01-13T22:14:29.267Z,21.34
2019-01-13T22:19:33.376Z,21.17
2019-01-13T22:24:37.505Z,21.30
2019-01-13T22:29:41.634Z,21.29
2019-01-13T22:34:45.890Z,21.22
2019-01-13T22:39:49.984Z,21.28
2019-01-13T22:44:53.991Z,21.28
2019-01-13T22:49:58.034Z,21.28
2019-01-13T22:55:02.273Z,21.22
2019-01-13T23:00:38.419Z,21.22
2019-01-13T23:05:42.437Z,21.29
2019-01-13T23:10:46.542Z,21.43
2019-01-13T23:15:50.728Z,21.35
2019-01-13T23:20:54.954Z,21.39
2019-01-13T23:25:58.966Z,21.31
2019-01-13T23:31:03.144Z,21.31
2019-01-13T23:36:07.279Z,21.38
2019-01-13T23:41:11.533Z,21.31
2019-01-13T23:46:15.904Z,21.38
2019-01-13T23:51:19.944Z,21.38
2019-01-13T23:56:23.989Z,21.36
